sensor_id;sensor_type;location;lat;lon;timestamp;P1;durP1;ratioP1;P2;durP2;ratioP2
40591;SDS011;26301;42.832;23.918;2023-01-16T00:00:49;12.37;;;7.87;;
40591;SDS011;26301;42.832;23.918;2023-01-16T00:03:15;11.17;;;7.07;;
40591;SDS011;26301;42.832;23.918;2023-01-16T00:05:41;13.77;;;7.80;;
40591;SDS011;26301;42.832;23.918;2023-01-16T00:08:07;11.60;;;7.00;;
40591;SDS011;26301;42.832;23.918;2023-01-16T00:10:33;14.00;;;7.00;;
40591;SDS011;26301;42.832;23.918;2023-01-16T00:12:58;9.67;;;6.07;;
40591;SDS011;26301;42.832;23.918;2023-01-16T00:15:24;11.40;;;7.37;;
40591;SDS011;26301;42.832;23.918;2023-01-16T00:17:49;11.10;;;6.73;;
40591;SDS011;26301;42.832;23.918;2023-01-16T00:20:15;11.03;;;7.00;;
40591;SDS011;26301;42.832;23.918;2023-01-16T00:22:41;10.47;;;6.97;;
40591;SDS011;26301;42.832;23.918;2023-01-16T00:25:07;8.23;;;5.77;;
40591;SDS011;26301;42.832;23.918;2023-01-16T00:27:33;11.43;;;6.53;;
40591;SDS011;26301;42.832;23.918;2023-01-16T00:29:59;10.50;;;6.33;;
40591;SDS011;26301;42.832;23.918;2023-01-16T00:32:25;10.83;;;5.90;;
40591;SDS011;26301;42.832;23.918;2023-01-16T00:34:51;11.00;;;6.67;;
40591;SDS011;26301;42.832;23.918;2023-01-16T00:37:16;11.33;;;7.07;;
40591;SDS011;26301;42.832;23.918;2023-01-16T00:39:42;10.53;;;6.73;;
40591;SDS011;26301;42.832;23.918;2023-01-16T00:42:07;10.53;;;6.70;;
40591;SDS011;26301;42.832;23.918;2023-01-16T00:44:34;10.37;;;6.00;;
40591;SDS011;26301;42.832;23.918;2023-01-16T00:47:00;9.33;;;6.00;;
40591;SDS011;26301;42.832;23.918;2023-01-16T00:49:26;11.33;;;6.57;;
40591;SDS011;26301;42.832;23.918;2023-01-16T00:51:52;9.70;;;6.30;;
40591;SDS011;26301;42.832;23.918;2023-01-16T00:54:20;11.10;;;6.33;;
40591;SDS011;26301;42.832;23.918;2023-01-16T00:56:45;9.63;;;6.53;;
40591;SDS011;26301;42.832;23.918;2023-01-16T00:59:11;10.53;;;6.10;;
40591;SDS011;26301;42.832;23.918;2023-01-16T01:01:37;12.47;;;6.83;;
40591;SDS011;26301;42.832;23.918;2023-01-16T01:04:03;9.87;;;6.80;;
40591;SDS011;26301;42.832;23.918;2023-01-16T01:06:29;9.63;;;6.33;;
40591;SDS011;26301;42.832;23.918;2023-01-16T01:08:54;13.37;;;6.60;;
40591;SDS011;26301;42.832;23.918;2023-01-16T01:11:20;10.70;;;6.43;;
40591;SDS011;26301;42.832;23.918;2023-01-16T01:13:46;11.73;;;6.60;;
40591;SDS011;26301;42.832;23.918;2023-01-16T01:16:12;12.37;;;7.57;;
40591;SDS011;26301;42.832;23.918;2023-01-16T01:18:38;15.67;;;8.30;;
40591;SDS011;26301;42.832;23.918;2023-01-16T01:21:04;11.57;;;7.03;;
40591;SDS011;26301;42.832;23.918;2023-01-16T01:23:30;14.80;;;7.20;;
40591;SDS011;26301;42.832;23.918;2023-01-16T01:25:56;12.37;;;7.33;;
40591;SDS011;26301;42.832;23.918;2023-01-16T01:28:22;11.27;;;7.03;;
40591;SDS011;26301;42.832;23.918;2023-01-16T01:30:48;11.57;;;6.53;;
40591;SDS011;26301;42.832;23.918;2023-01-16T01:33:13;10.60;;;5.77;;
40591;SDS011;26301;42.832;23.918;2023-01-16T01:35:39;11.77;;;6.47;;
40591;SDS011;26301;42.832;23.918;2023-01-16T01:38:05;11.27;;;6.77;;
40591;SDS011;26301;42.832;23.918;2023-01-16T01:40:31;14.30;;;7.17;;
40591;SDS011;26301;42.832;23.918;2023-01-16T01:42:57;11.30;;;7.03;;
40591;SDS011;26301;42.832;23.918;2023-01-16T01:45:24;11.80;;;6.57;;
40591;SDS011;26301;42.832;23.918;2023-01-16T01:47:56;11.93;;;7.07;;
40591;SDS011;26301;42.832;23.918;2023-01-16T01:50:35;10.10;;;6.20;;
40591;SDS011;26301;42.832;23.918;2023-01-16T01:53:17;9.43;;;6.10;;
40591;SDS011;26301;42.832;23.918;2023-01-16T01:55:47;11.70;;;6.47;;
40591;SDS011;26301;42.832;23.918;2023-01-16T01:58:14;10.67;;;6.30;;
40591;SDS011;26301;42.832;23.918;2023-01-16T02:00:47;9.23;;;6.27;;
40591;SDS011;26301;42.832;23.918;2023-01-16T02:03:17;10.90;;;7.13;;
40591;SDS011;26301;42.832;23.918;2023-01-16T02:05:51;9.57;;;6.07;;
40591;SDS011;26301;42.832;23.918;2023-01-16T02:08:21;9.87;;;6.43;;
40591;SDS011;26301;42.832;23.918;2023-01-16T02:11:09;9.03;;;5.67;;
40591;SDS011;26301;42.832;23.918;2023-01-16T02:14:00;9.17;;;6.13;;
40591;SDS011;26301;42.832;23.918;2023-01-16T02:16:38;9.60;;;6.10;;
40591;SDS011;26301;42.832;23.918;2023-01-16T02:19:31;10.83;;;6.43;;
40591;SDS011;26301;42.832;23.918;2023-01-16T02:22:31;10.07;;;5.83;;
40591;SDS011;26301;42.832;23.918;2023-01-16T02:42:02;10.30;;;6.00;;
40591;SDS011;26301;42.832;23.918;2023-01-16T02:50:13;10.03;;;6.43;;
40591;SDS011;26301;42.832;23.918;2023-01-16T02:52:56;10.93;;;6.77;;
40591;SDS011;26301;42.832;23.918;2023-01-16T02:55:38;11.10;;;6.73;;
40591;SDS011;26301;42.832;23.918;2023-01-16T02:58:09;10.25;;;6.45;;
40591;SDS011;26301;42.832;23.918;2023-01-16T03:00:36;8.93;;;5.53;;
40591;SDS011;26301;42.832;23.918;2023-01-16T03:03:33;8.53;;;5.57;;
40591;SDS011;26301;42.832;23.918;2023-01-16T03:11:29;12.50;;;6.80;;
40591;SDS011;26301;42.832;23.918;2023-01-16T03:23:13;10.53;;;5.60;;
40591;SDS011;26301;42.832;23.918;2023-01-16T03:25:52;8.73;;;5.97;;
40591;SDS011;26301;42.832;23.918;2023-01-16T03:28:34;9.45;;;6.43;;
40591;SDS011;26301;42.832;23.918;2023-01-16T03:36:59;12.33;;;5.80;;
40591;SDS011;26301;42.832;23.918;2023-01-16T03:39:34;9.77;;;6.13;;
40591;SDS011;26301;42.832;23.918;2023-01-16T03:42:06;11.27;;;6.28;;
40591;SDS011;26301;42.832;23.918;2023-01-16T03:44:40;13.10;;;6.63;;
40591;SDS011;26301;42.832;23.918;2023-01-16T03:47:13;10.03;;;6.27;;
40591;SDS011;26301;42.832;23.918;2023-01-16T03:49:44;11.90;;;6.75;;
40591;SDS011;26301;42.832;23.918;2023-01-16T03:52:15;9.67;;;6.17;;
40591;SDS011;26301;42.832;23.918;2023-01-16T03:57:26;9.20;;;5.40;;
40591;SDS011;26301;42.832;23.918;2023-01-16T03:59:57;10.32;;;5.43;;
40591;SDS011;26301;42.832;23.918;2023-01-16T04:07:49;10.53;;;6.43;;
40591;SDS011;26301;42.832;23.918;2023-01-16T04:10:17;10.00;;;5.83;;
40591;SDS011;26301;42.832;23.918;2023-01-16T04:12:54;11.87;;;6.33;;
40591;SDS011;26301;42.832;23.918;2023-01-16T04:15:23;11.67;;;6.17;;
40591;SDS011;26301;42.832;23.918;2023-01-16T04:17:52;12.13;;;6.50;;
40591;SDS011;26301;42.832;23.918;2023-01-16T04:20:19;10.63;;;6.03;;
40591;SDS011;26301;42.832;23.918;2023-01-16T04:22:47;12.03;;;6.90;;
40591;SDS011;26301;42.832;23.918;2023-01-16T04:25:14;9.50;;;5.80;;
40591;SDS011;26301;42.832;23.918;2023-01-16T04:27:39;11.17;;;6.37;;
40591;SDS011;26301;42.832;23.918;2023-01-16T04:30:05;13.13;;;6.43;;
40591;SDS011;26301;42.832;23.918;2023-01-16T04:32:32;10.57;;;6.13;;
40591;SDS011;26301;42.832;23.918;2023-01-16T04:34:57;12.13;;;6.37;;
40591;SDS011;26301;42.832;23.918;2023-01-16T04:37:23;8.70;;;5.67;;
40591;SDS011;26301;42.832;23.918;2023-01-16T04:39:49;9.30;;;6.03;;
40591;SDS011;26301;42.832;23.918;2023-01-16T04:42:14;10.00;;;6.23;;
40591;SDS011;26301;42.832;23.918;2023-01-16T04:44:40;9.97;;;5.60;;
40591;SDS011;26301;42.832;23.918;2023-01-16T04:47:06;10.30;;;5.70;;
40591;SDS011;26301;42.832;23.918;2023-01-16T04:49:32;10.77;;;6.20;;
40591;SDS011;26301;42.832;23.918;2023-01-16T04:51:57;13.70;;;7.37;;
40591;SDS011;26301;42.832;23.918;2023-01-16T04:54:23;11.13;;;7.17;;
40591;SDS011;26301;42.832;23.918;2023-01-16T04:56:48;9.73;;;6.20;;
40591;SDS011;26301;42.832;23.918;2023-01-16T04:59:14;11.40;;;6.90;;
40591;SDS011;26301;42.832;23.918;2023-01-16T05:01:40;11.20;;;6.27;;
40591;SDS011;26301;42.832;23.918;2023-01-16T05:04:07;10.53;;;6.47;;
40591;SDS011;26301;42.832;23.918;2023-01-16T05:06:34;11.93;;;7.93;;
40591;SDS011;26301;42.832;23.918;2023-01-16T05:09:00;14.93;;;8.30;;
40591;SDS011;26301;42.832;23.918;2023-01-16T05:11:28;13.83;;;8.93;;
40591;SDS011;26301;42.832;23.918;2023-01-16T05:13:54;13.30;;;7.73;;
40591;SDS011;26301;42.832;23.918;2023-01-16T05:16:20;15.20;;;8.77;;
40591;SDS011;26301;42.832;23.918;2023-01-16T05:18:46;13.07;;;7.80;;
40591;SDS011;26301;42.832;23.918;2023-01-16T05:21:11;13.37;;;8.10;;
40591;SDS011;26301;42.832;23.918;2023-01-16T05:23:37;13.17;;;8.30;;
40591;SDS011;26301;42.832;23.918;2023-01-16T05:26:03;17.10;;;7.70;;
40591;SDS011;26301;42.832;23.918;2023-01-16T05:28:31;18.03;;;12.60;;
40591;SDS011;26301;42.832;23.918;2023-01-16T05:30:57;19.10;;;10.87;;
40591;SDS011;26301;42.832;23.918;2023-01-16T05:33:23;19.77;;;9.27;;
40591;SDS011;26301;42.832;23.918;2023-01-16T05:35:49;14.90;;;8.67;;
40591;SDS011;26301;42.832;23.918;2023-01-16T05:38:16;13.33;;;8.47;;
40591;SDS011;26301;42.832;23.918;2023-01-16T05:40:42;15.60;;;8.80;;
40591;SDS011;26301;42.832;23.918;2023-01-16T05:43:08;14.10;;;7.93;;
40591;SDS011;26301;42.832;23.918;2023-01-16T05:45:34;13.10;;;8.17;;
40591;SDS011;26301;42.832;23.918;2023-01-16T05:47:59;11.67;;;7.20;;
40591;SDS011;26301;42.832;23.918;2023-01-16T05:50:25;11.20;;;6.70;;
40591;SDS011;26301;42.832;23.918;2023-01-16T05:52:50;11.83;;;7.20;;
40591;SDS011;26301;42.832;23.918;2023-01-16T05:55:16;12.53;;;8.00;;
40591;SDS011;26301;42.832;23.918;2023-01-16T05:57:42;16.27;;;9.27;;
40591;SDS011;26301;42.832;23.918;2023-01-16T06:00:08;25.33;;;12.93;;
40591;SDS011;26301;42.832;23.918;2023-01-16T06:02:34;18.27;;;10.57;;
40591;SDS011;26301;42.832;23.918;2023-01-16T06:04:59;11.53;;;6.70;;
40591;SDS011;26301;42.832;23.918;2023-01-16T06:07:25;16.80;;;9.17;;
40591;SDS011;26301;42.832;23.918;2023-01-16T06:09:50;24.13;;;13.63;;
40591;SDS011;26301;42.832;23.918;2023-01-16T06:12:17;28.93;;;17.00;;
40591;SDS011;26301;42.832;23.918;2023-01-16T06:14:43;27.23;;;15.43;;
40591;SDS011;26301;42.832;23.918;2023-01-16T06:17:09;18.30;;;10.97;;
40591;SDS011;26301;42.832;23.918;2023-01-16T06:19:36;17.37;;;10.37;;
40591;SDS011;26301;42.832;23.918;2023-01-16T06:22:01;19.23;;;10.80;;
40591;SDS011;26301;42.832;23.918;2023-01-16T06:24:27;17.67;;;10.63;;
40591;SDS011;26301;42.832;23.918;2023-01-16T06:26:53;19.13;;;10.40;;
40591;SDS011;26301;42.832;23.918;2023-01-16T06:29:18;16.67;;;9.67;;
40591;SDS011;26301;42.832;23.918;2023-01-16T06:31:44;18.60;;;11.50;;
40591;SDS011;26301;42.832;23.918;2023-01-16T06:34:10;19.83;;;10.73;;
40591;SDS011;26301;42.832;23.918;2023-01-16T06:36:35;19.17;;;11.00;;
40591;SDS011;26301;42.832;23.918;2023-01-16T06:39:02;20.60;;;12.27;;
40591;SDS011;26301;42.832;23.918;2023-01-16T06:41:27;23.43;;;12.67;;
40591;SDS011;26301;42.832;23.918;2023-01-16T06:43:53;28.67;;;15.47;;
40591;SDS011;26301;42.832;23.918;2023-01-16T06:46:19;28.90;;;15.73;;
40591;SDS011;26301;42.832;23.918;2023-01-16T06:48:44;30.00;;;14.23;;
40591;SDS011;26301;42.832;23.918;2023-01-16T06:51:10;18.83;;;10.90;;
40591;SDS011;26301;42.832;23.918;2023-01-16T06:53:36;24.93;;;14.40;;
40591;SDS011;26301;42.832;23.918;2023-01-16T06:56:02;31.97;;;16.17;;
40591;SDS011;26301;42.832;23.918;2023-01-16T06:58:28;28.80;;;15.20;;
40591;SDS011;26301;42.832;23.918;2023-01-16T07:00:53;42.70;;;25.97;;
40591;SDS011;26301;42.832;23.918;2023-01-16T07:03:20;31.70;;;18.33;;
40591;SDS011;26301;42.832;23.918;2023-01-16T07:05:46;26.10;;;15.87;;
40591;SDS011;26301;42.832;23.918;2023-01-16T07:08:12;28.90;;;15.87;;
40591;SDS011;26301;42.832;23.918;2023-01-16T07:10:38;25.23;;;14.53;;
40591;SDS011;26301;42.832;23.918;2023-01-16T07:13:04;27.40;;;16.30;;
40591;SDS011;26301;42.832;23.918;2023-01-16T07:15:30;21.17;;;13.33;;
40591;SDS011;26301;42.832;23.918;2023-01-16T07:18:15;20.30;;;12.47;;
40591;SDS011;26301;42.832;23.918;2023-01-16T07:21:05;28.97;;;17.10;;
40591;SDS011;26301;42.832;23.918;2023-01-16T07:23:55;30.10;;;17.53;;
40591;SDS011;26301;42.832;23.918;2023-01-16T07:26:33;27.30;;;17.57;;
40591;SDS011;26301;42.832;23.918;2023-01-16T07:29:01;29.83;;;19.33;;
40591;SDS011;26301;42.832;23.918;2023-01-16T07:31:27;24.63;;;14.33;;
40591;SDS011;26301;42.832;23.918;2023-01-16T07:33:54;16.43;;;10.77;;
40591;SDS011;26301;42.832;23.918;2023-01-16T07:36:20;17.13;;;11.57;;
40591;SDS011;26301;42.832;23.918;2023-01-16T07:38:46;14.33;;;8.53;;
40591;SDS011;26301;42.832;23.918;2023-01-16T07:41:11;17.37;;;11.63;;
40591;SDS011;26301;42.832;23.918;2023-01-16T07:43:37;16.47;;;8.90;;
40591;SDS011;26301;42.832;23.918;2023-01-16T07:46:02;11.40;;;8.27;;
40591;SDS011;26301;42.832;23.918;2023-01-16T07:48:28;12.43;;;7.83;;
40591;SDS011;26301;42.832;23.918;2023-01-16T07:50:55;11.07;;;7.13;;
40591;SDS011;26301;42.832;23.918;2023-01-16T07:53:22;10.97;;;7.10;;
40591;SDS011;26301;42.832;23.918;2023-01-16T07:55:49;7.93;;;5.90;;
40591;SDS011;26301;42.832;23.918;2023-01-16T07:58:19;9.83;;;7.23;;
40591;SDS011;26301;42.832;23.918;2023-01-16T08:00:48;7.33;;;5.23;;
40591;SDS011;26301;42.832;23.918;2023-01-16T08:03:16;8.20;;;5.37;;
40591;SDS011;26301;42.832;23.918;2023-01-16T08:05:42;9.07;;;5.67;;
40591;SDS011;26301;42.832;23.918;2023-01-16T08:08:11;8.77;;;6.60;;
40591;SDS011;26301;42.832;23.918;2023-01-16T08:10:37;6.90;;;4.80;;
40591;SDS011;26301;42.832;23.918;2023-01-16T08:13:03;9.33;;;5.90;;
40591;SDS011;26301;42.832;23.918;2023-01-16T08:15:29;9.10;;;6.20;;
40591;SDS011;26301;42.832;23.918;2023-01-16T08:17:55;5.90;;;4.23;;
40591;SDS011;26301;42.832;23.918;2023-01-16T08:20:21;7.73;;;5.17;;
40591;SDS011;26301;42.832;23.918;2023-01-16T08:22:48;8.07;;;5.30;;
40591;SDS011;26301;42.832;23.918;2023-01-16T08:25:21;8.27;;;5.63;;
40591;SDS011;26301;42.832;23.918;2023-01-16T08:27:48;8.37;;;5.43;;
40591;SDS011;26301;42.832;23.918;2023-01-16T08:30:14;8.13;;;5.40;;
40591;SDS011;26301;42.832;23.918;2023-01-16T08:32:40;8.27;;;5.43;;
40591;SDS011;26301;42.832;23.918;2023-01-16T08:35:07;7.63;;;5.03;;
40591;SDS011;26301;42.832;23.918;2023-01-16T08:37:33;8.80;;;5.30;;
40591;SDS011;26301;42.832;23.918;2023-01-16T08:39:59;8.57;;;5.60;;
40591;SDS011;26301;42.832;23.918;2023-01-16T08:42:25;6.77;;;5.10;;
40591;SDS011;26301;42.832;23.918;2023-01-16T08:45:09;6.17;;;4.57;;
40591;SDS011;26301;42.832;23.918;2023-01-16T08:47:54;8.33;;;4.77;;
40591;SDS011;26301;42.832;23.918;2023-01-16T08:50:39;5.93;;;4.27;;
40591;SDS011;26301;42.832;23.918;2023-01-16T08:53:24;7.33;;;5.13;;
40591;SDS011;26301;42.832;23.918;2023-01-16T08:55:50;7.10;;;5.23;;
40591;SDS011;26301;42.832;23.918;2023-01-16T08:58:15;6.30;;;4.47;;
40591;SDS011;26301;42.832;23.918;2023-01-16T09:00:41;6.20;;;4.88;;
40591;SDS011;26301;42.832;23.918;2023-01-16T09:03:07;8.83;;;5.47;;
40591;SDS011;26301;42.832;23.918;2023-01-16T09:05:32;6.95;;;4.70;;
40591;SDS011;26301;42.832;23.918;2023-01-16T09:07:58;9.75;;;4.35;;
40591;SDS011;26301;42.832;23.918;2023-01-16T09:10:24;7.13;;;5.00;;
40591;SDS011;26301;42.832;23.918;2023-01-16T09:12:50;6.80;;;4.60;;
40591;SDS011;26301;42.832;23.918;2023-01-16T09:15:34;7.37;;;5.07;;
40591;SDS011;26301;42.832;23.918;2023-01-16T09:18:00;6.43;;;4.38;;
40591;SDS011;26301;42.832;23.918;2023-01-16T09:20:26;9.23;;;5.30;;
40591;SDS011;26301;42.832;23.918;2023-01-16T09:22:58;10.65;;;8.30;;
40591;SDS011;26301;42.832;23.918;2023-01-16T09:25:24;8.63;;;5.68;;
40591;SDS011;26301;42.832;23.918;2023-01-16T09:27:50;6.85;;;5.18;;
40591;SDS011;26301;42.832;23.918;2023-01-16T09:30:16;6.22;;;4.40;;
40591;SDS011;26301;42.832;23.918;2023-01-16T09:32:43;6.90;;;5.13;;
40591;SDS011;26301;42.832;23.918;2023-01-16T09:35:09;6.90;;;4.30;;
40591;SDS011;26301;42.832;23.918;2023-01-16T09:37:35;6.63;;;4.47;;
40591;SDS011;26301;42.832;23.918;2023-01-16T09:40:00;6.80;;;4.68;;
40591;SDS011;26301;42.832;23.918;2023-01-16T09:45:23;6.03;;;4.40;;
40591;SDS011;26301;42.832;23.918;2023-01-16T09:47:53;8.03;;;4.70;;
40591;SDS011;26301;42.832;23.918;2023-01-16T09:50:32;7.05;;;4.78;;
40591;SDS011;26301;42.832;23.918;2023-01-16T09:53:04;5.88;;;4.30;;
40591;SDS011;26301;42.832;23.918;2023-01-16T09:55:54;7.20;;;4.85;;
40591;SDS011;26301;42.832;23.918;2023-01-16T09:58:43;5.78;;;4.13;;
40591;SDS011;26301;42.832;23.918;2023-01-16T10:01:23;7.55;;;5.47;;
40591;SDS011;26301;42.832;23.918;2023-01-16T10:06:48;7.20;;;5.50;;
40591;SDS011;26301;42.832;23.918;2023-01-16T10:12:13;7.28;;;4.95;;
40591;SDS011;26301;42.832;23.918;2023-01-16T10:17:36;6.80;;;5.13;;
40591;SDS011;26301;42.832;23.918;2023-01-16T10:23:04;9.95;;;6.05;;
40591;SDS011;26301;42.832;23.918;2023-01-16T10:37:13;7.87;;;6.23;;
40591;SDS011;26301;42.832;23.918;2023-01-16T10:39:39;7.97;;;5.60;;
40591;SDS011;26301;42.832;23.918;2023-01-16T10:42:23;7.40;;;5.57;;
40591;SDS011;26301;42.832;23.918;2023-01-16T10:45:13;8.43;;;5.67;;
40591;SDS011;26301;42.832;23.918;2023-01-16T10:48:00;8.75;;;6.03;;
40591;SDS011;26301;42.832;23.918;2023-01-16T10:50:45;8.97;;;5.30;;
40591;SDS011;26301;42.832;23.918;2023-01-16T10:53:12;9.05;;;5.57;;
40591;SDS011;26301;42.832;23.918;2023-01-16T10:55:39;9.73;;;5.77;;
40591;SDS011;26301;42.832;23.918;2023-01-16T10:58:27;8.07;;;5.90;;
40591;SDS011;26301;42.832;23.918;2023-01-16T11:01:11;11.85;;;6.20;;
40591;SDS011;26301;42.832;23.918;2023-01-16T11:06:26;8.23;;;5.67;;
40591;SDS011;26301;42.832;23.918;2023-01-16T11:08:54;8.40;;;5.53;;
40591;SDS011;26301;42.832;23.918;2023-01-16T11:11:33;9.90;;;6.50;;
40591;SDS011;26301;42.832;23.918;2023-01-16T11:20:14;6.95;;;5.18;;
40591;SDS011;26301;42.832;23.918;2023-01-16T11:23:05;7.03;;;4.83;;
40591;SDS011;26301;42.832;23.918;2023-01-16T11:25:49;10.45;;;6.65;;
40591;SDS011;26301;42.832;23.918;2023-01-16T11:28:21;10.77;;;7.05;;
40591;SDS011;26301;42.832;23.918;2023-01-16T11:33:19;8.07;;;5.50;;
40591;SDS011;26301;42.832;23.918;2023-01-16T11:35:51;9.47;;;5.77;;
40591;SDS011;26301;42.832;23.918;2023-01-16T11:38:20;9.20;;;5.80;;
40591;SDS011;26301;42.832;23.918;2023-01-16T11:40:47;7.47;;;5.22;;
40591;SDS011;26301;42.832;23.918;2023-01-16T11:43:16;7.93;;;5.23;;
40591;SDS011;26301;42.832;23.918;2023-01-16T11:46:06;7.63;;;5.47;;
40591;SDS011;26301;42.832;23.918;2023-01-16T11:48:53;7.17;;;4.77;;
40591;SDS011;26301;42.832;23.918;2023-01-16T11:51:23;8.73;;;5.70;;
40591;SDS011;26301;42.832;23.918;2023-01-16T11:53:54;7.10;;;5.10;;
40591;SDS011;26301;42.832;23.918;2023-01-16T11:59:23;10.32;;;6.50;;
40591;SDS011;26301;42.832;23.918;2023-01-16T12:05:15;9.70;;;5.97;;
40591;SDS011;26301;42.832;23.918;2023-01-16T12:08:19;7.50;;;5.32;;
40591;SDS011;26301;42.832;23.918;2023-01-16T12:16:48;10.93;;;6.03;;
40591;SDS011;26301;42.832;23.918;2023-01-16T12:22:25;8.77;;;5.32;;
40591;SDS011;26301;42.832;23.918;2023-01-16T12:28:09;8.77;;;6.25;;
40591;SDS011;26301;42.832;23.918;2023-01-16T12:51:06;8.60;;;5.93;;
40591;SDS011;26301;42.832;23.918;2023-01-16T12:59:48;8.00;;;5.90;;
40591;SDS011;26301;42.832;23.918;2023-01-16T13:01:55;8.60;;;6.35;;
40591;SDS011;26301;42.832;23.918;2023-01-16T13:04:43;13.98;;;8.00;;
40591;SDS011;26301;42.832;23.918;2023-01-16T13:07:15;11.40;;;7.50;;
40591;SDS011;26301;42.832;23.918;2023-01-16T13:12:17;11.77;;;7.65;;
40591;SDS011;26301;42.832;23.918;2023-01-16T13:15:06;12.35;;;7.50;;
40591;SDS011;26301;42.832;23.918;2023-01-16T13:17:47;8.05;;;6.15;;
40591;SDS011;26301;42.832;23.918;2023-01-16T13:20:18;11.63;;;7.60;;
40591;SDS011;26301;42.832;23.918;2023-01-16T13:23:04;11.52;;;6.82;;
40591;SDS011;26301;42.832;23.918;2023-01-16T13:25:39;8.90;;;6.70;;
40591;SDS011;26301;42.832;23.918;2023-01-16T13:31:02;10.88;;;6.95;;
40591;SDS011;26301;42.832;23.918;2023-01-16T13:33:32;11.43;;;7.80;;
40591;SDS011;26301;42.832;23.918;2023-01-16T13:41:30;14.77;;;10.27;;
40591;SDS011;26301;42.832;23.918;2023-01-16T13:44:20;15.18;;;9.85;;
40591;SDS011;26301;42.832;23.918;2023-01-16T13:47:18;8.77;;;6.10;;
40591;SDS011;26301;42.832;23.918;2023-01-16T13:49:49;10.05;;;6.78;;
40591;SDS011;26301;42.832;23.918;2023-01-16T13:52:26;8.20;;;5.93;;
40591;SDS011;26301;42.832;23.918;2023-01-16T13:54:54;9.48;;;6.22;;
40591;SDS011;26301;42.832;23.918;2023-01-16T13:57:22;8.93;;;6.60;;
40591;SDS011;26301;42.832;23.918;2023-01-16T13:59:55;9.73;;;6.60;;
40591;SDS011;26301;42.832;23.918;2023-01-16T14:10:43;10.93;;;5.90;;
40591;SDS011;26301;42.832;23.918;2023-01-16T14:21:10;9.17;;;6.53;;
40591;SDS011;26301;42.832;23.918;2023-01-16T14:23:59;10.13;;;6.50;;
40591;SDS011;26301;42.832;23.918;2023-01-16T14:26:39;10.70;;;6.43;;
40591;SDS011;26301;42.832;23.918;2023-01-16T14:29:34;11.83;;;8.17;;
40591;SDS011;26301;42.832;23.918;2023-01-16T14:34:38;10.00;;;7.27;;
40591;SDS011;26301;42.832;23.918;2023-01-16T14:37:15;13.50;;;8.40;;
40591;SDS011;26301;42.832;23.918;2023-01-16T14:39:50;9.83;;;7.47;;
40591;SDS011;26301;42.832;23.918;2023-01-16T14:42:31;10.90;;;7.33;;
40591;SDS011;26301;42.832;23.918;2023-01-16T14:48:13;10.23;;;6.27;;
40591;SDS011;26301;42.832;23.918;2023-01-16T14:54:03;10.70;;;6.80;;
40591;SDS011;26301;42.832;23.918;2023-01-16T14:57:13;11.23;;;7.03;;
40591;SDS011;26301;42.832;23.918;2023-01-16T14:59:43;8.80;;;5.63;;
40591;SDS011;26301;42.832;23.918;2023-01-16T15:02:19;11.67;;;7.20;;
40591;SDS011;26301;42.832;23.918;2023-01-16T15:12:41;8.63;;;6.30;;
40591;SDS011;26301;42.832;23.918;2023-01-16T15:15:24;10.97;;;7.70;;
40591;SDS011;26301;42.832;23.918;2023-01-16T15:17:54;10.93;;;8.53;;
40591;SDS011;26301;42.832;23.918;2023-01-16T15:20:41;10.27;;;6.83;;
40591;SDS011;26301;42.832;23.918;2023-01-16T15:23:28;12.30;;;8.03;;
40591;SDS011;26301;42.832;23.918;2023-01-16T15:26:06;8.47;;;5.40;;
40591;SDS011;26301;42.832;23.918;2023-01-16T15:31:39;8.73;;;6.13;;
40591;SDS011;26301;42.832;23.918;2023-01-16T15:36:40;7.67;;;5.53;;
40591;SDS011;26301;42.832;23.918;2023-01-16T15:41:47;8.00;;;5.63;;
40591;SDS011;26301;42.832;23.918;2023-01-16T15:44:37;7.47;;;5.30;;
40591;SDS011;26301;42.832;23.918;2023-01-16T15:52:42;8.10;;;5.83;;
40591;SDS011;26301;42.832;23.918;2023-01-16T15:57:49;9.23;;;6.17;;
40591;SDS011;26301;42.832;23.918;2023-01-16T16:00:52;13.65;;;8.65;;
40591;SDS011;26301;42.832;23.918;2023-01-16T16:03:21;7.70;;;5.27;;
40591;SDS011;26301;42.832;23.918;2023-01-16T16:05:52;17.10;;;12.45;;
40591;SDS011;26301;42.832;23.918;2023-01-16T16:08:26;7.22;;;5.25;;
40591;SDS011;26301;42.832;23.918;2023-01-16T16:10:56;7.43;;;5.10;;
40591;SDS011;26301;42.832;23.918;2023-01-16T16:13:42;8.37;;;5.17;;
40591;SDS011;26301;42.832;23.918;2023-01-16T16:16:16;6.47;;;4.65;;
40591;SDS011;26301;42.832;23.918;2023-01-16T16:19:05;7.13;;;5.07;;
40591;SDS011;26301;42.832;23.918;2023-01-16T16:21:43;7.97;;;5.53;;
40591;SDS011;26301;42.832;23.918;2023-01-16T16:24:31;6.28;;;4.15;;
40591;SDS011;26301;42.832;23.918;2023-01-16T16:27:03;7.57;;;5.10;;
40591;SDS011;26301;42.832;23.918;2023-01-16T16:29:33;6.03;;;4.35;;
40591;SDS011;26301;42.832;23.918;2023-01-16T16:32:00;5.22;;;3.92;;
40591;SDS011;26301;42.832;23.918;2023-01-16T16:34:27;5.90;;;3.90;;
40591;SDS011;26301;42.832;23.918;2023-01-16T16:36:56;5.43;;;3.47;;
40591;SDS011;26301;42.832;23.918;2023-01-16T16:41:54;6.43;;;4.38;;
40591;SDS011;26301;42.832;23.918;2023-01-16T16:44:39;5.83;;;4.33;;
40591;SDS011;26301;42.832;23.918;2023-01-16T16:47:28;7.43;;;4.60;;
40591;SDS011;26301;42.832;23.918;2023-01-16T16:49:55;8.60;;;5.47;;
40591;SDS011;26301;42.832;23.918;2023-01-16T16:52:29;7.28;;;4.53;;
40591;SDS011;26301;42.832;23.918;2023-01-16T16:54:59;7.60;;;5.00;;
40591;SDS011;26301;42.832;23.918;2023-01-16T16:57:26;5.30;;;3.63;;
40591;SDS011;26301;42.832;23.918;2023-01-16T17:00:04;6.77;;;3.97;;
40591;SDS011;26301;42.832;23.918;2023-01-16T17:02:32;9.02;;;6.30;;
40591;SDS011;26301;42.832;23.918;2023-01-16T17:04:59;6.80;;;4.63;;
40591;SDS011;26301;42.832;23.918;2023-01-16T17:07:26;7.43;;;4.22;;
40591;SDS011;26301;42.832;23.918;2023-01-16T17:09:54;5.93;;;4.43;;
40591;SDS011;26301;42.832;23.918;2023-01-16T17:12:20;7.60;;;4.83;;
40591;SDS011;26301;42.832;23.918;2023-01-16T17:14:46;6.50;;;4.60;;
40591;SDS011;26301;42.832;23.918;2023-01-16T17:17:15;6.55;;;4.60;;
40591;SDS011;26301;42.832;23.918;2023-01-16T17:19:43;6.47;;;4.72;;
40591;SDS011;26301;42.832;23.918;2023-01-16T17:22:10;6.90;;;4.53;;
40591;SDS011;26301;42.832;23.918;2023-01-16T17:24:37;5.47;;;3.60;;
40591;SDS011;26301;42.832;23.918;2023-01-16T17:27:03;5.47;;;4.18;;
40591;SDS011;26301;42.832;23.918;2023-01-16T17:29:32;6.10;;;4.10;;
40591;SDS011;26301;42.832;23.918;2023-01-16T17:31:59;5.70;;;4.32;;
40591;SDS011;26301;42.832;23.918;2023-01-16T17:34:29;6.55;;;4.85;;
40591;SDS011;26301;42.832;23.918;2023-01-16T17:36:57;6.50;;;4.68;;
40591;SDS011;26301;42.832;23.918;2023-01-16T17:39:24;6.20;;;4.77;;
40591;SDS011;26301;42.832;23.918;2023-01-16T17:41:50;7.77;;;5.03;;
40591;SDS011;26301;42.832;23.918;2023-01-16T17:44:18;6.53;;;4.50;;
40591;SDS011;26301;42.832;23.918;2023-01-16T17:47:04;7.07;;;4.68;;
40591;SDS011;26301;42.832;23.918;2023-01-16T17:49:30;5.18;;;3.58;;
40591;SDS011;26301;42.832;23.918;2023-01-16T17:51:56;7.05;;;5.30;;
40591;SDS011;26301;42.832;23.918;2023-01-16T17:54:22;8.80;;;4.45;;
40591;SDS011;26301;42.832;23.918;2023-01-16T17:57:06;6.40;;;4.63;;
40591;SDS011;26301;42.832;23.918;2023-01-16T17:59:32;6.97;;;4.75;;
40591;SDS011;26301;42.832;23.918;2023-01-16T18:01:57;16.92;;;8.32;;
40591;SDS011;26301;42.832;23.918;2023-01-16T18:04:23;7.00;;;4.65;;